Time;durP1;ratioP1;P1;durP2;ratioP2;P2;SDS_P1;SDS_P2;PMS_P1;PMS_P2;Temp;Humidity;BMP_temperature;BMP_pressure;BME280_temperature;BME280_humidity;BME280_pressure;Samples;Min_cycle;Max_cycle;Signal;HPM_P1;HPM_P2
2022/05/14 00:00:14;;;;;;;;;;;;;;;10.13;100.00;96379.75;1031692;28;20533;-71
2022/05/14 00:00:45;;;;;;;;;;;;;;;10.13;100.00;96373.69;1031325;28;19918;-71
2022/05/14 00:01:15;;;;;;;;;;;;;;;10.11;100.00;96376.56;1026959;28;19918;-69
2022/05/14 00:01:45;;;;;;;;;;;;;;;10.11;100.00;96376.56;1027032;28;19929;-70
2022/05/14 00:02:16;;;;;;;;;;;;;;;10.13;100.00;96373.69;1027319;28;19929;-70
2022/05/14 00:02:46;;;;;;;;;;;;;;;10.11;100.00;96375.75;1035027;28;19990;-70
2022/05/14 00:03:17;;;;;;;;;;;;;;;10.13;100.00;96374.50;1038928;28;19924;-71
2022/05/14 00:03:47;;;;;;;;;;;;;;;10.11;100.00;96368.69;1031128;28;20358;-70
2022/05/14 00:04:17;;;;;;;;;;;;;;;10.13;100.00;96371.09;1035193;28;20059;-72
2022/05/14 00:04:48;;;;;;;;;;;;;;;10.11;100.00;96376.56;1034871;28;19921;-71
2022/05/14 00:05:19;;;;;;;;;;;;;;;10.10;100.00;96374.19;1031269;28;19925;-71
2022/05/14 00:05:49;;;;;;;;;;;;;;;10.12;100.00;96372.88;1035105;28;19922;-70
2022/05/14 00:06:20;;;;;;;;;;;;;;;10.11;100.00;96371.31;1035430;28;19929;-71
2022/05/14 00:06:51;;;;;;;;;;;;;;;10.13;100.00;96368.47;1031119;28;19917;-71
2022/05/14 00:07:22;;;;;;;;;;;;;;;10.12;100.00;96369.47;1031118;28;19953;-70
2022/05/14 00:07:52;;;;;;;;;;;;;;;10.13;100.00;96371.88;1026961;28;19926;-70
2022/05/14 00:08:23;;;;;;;;;;;;;;;10.13;100.00;96369.25;1026958;28;19925;-71
2022/05/14 00:08:53;;;;;;;;;;;;;;;10.14;100.00;96365.56;1027019;28;19982;-70
2022/05/14 00:09:23;;;;;;;;;;;;;;;10.15;100.00;96363.75;1031309;28;19949;-70
2022/05/14 00:09:54;;;;;;;;;;;;;;;10.16;100.00;96367.97;1030832;28;19953;-70
2022/05/14 00:10:24;;;;;;;;;;;;;;;10.19;100.00;96366.66;1027140;28;19948;-71
2022/05/14 00:13:22;;;;;;;;;;;;;;;10.29;100.00;96369.44;1032253;28;20025;-70
2022/05/14 00:13:52;;;;;;;;;;;;;;;10.31;100.00;96367.38;1022644;29;19958;-70
2022/05/14 00:14:22;;;;;;;;;;;;;;;10.33;100.00;96367.94;1023129;29;19993;-70
2022/05/14 00:14:53;;;;;;;;;;;;;;;10.34;100.00;96374.75;1025405;28;19924;-70
2022/05/14 00:15:23;;;;;;;;;;;;;;;10.36;100.00;96368.25;1027104;28;19930;-71
2022/05/14 00:15:54;;;;;;;;;;;;;;;10.37;100.00;96363.78;1039087;28;19917;-70
2022/05/14 00:16:24;;;;;;;;;;;;;;;10.40;100.00;96367.75;1031096;28;19917;-70
2022/05/14 00:16:55;;;;;;;;;;;;;;;10.41;100.00;96370.13;1030918;28;19961;-71
2022/05/14 00:17:26;;;;;;;;;;;;;;;10.44;100.00;96368.84;1035063;28;19917;-70
2022/05/14 00:17:56;;;;;;;;;;;;;;;10.45;100.00;96360.72;1035033;28;19948;-70
2022/05/14 00:18:26;;;;;;;;;;;;;;;10.47;100.00;96363.91;1040276;28;19910;-70
2022/05/14 00:18:56;;;;;;;;;;;;;;;10.49;100.00;96361.81;1035189;28;19975;-70
2022/05/14 00:19:27;;;;;;;;;;;;;;;10.50;100.00;96363.41;1035051;28;19913;-70
2022/05/14 00:19:58;;;;;;;;;;;;;;;10.50;100.00;96358.16;1034121;28;19920;-70
2022/05/14 00:20:28;;;;;;;;;;;;;;;10.53;100.00;96365.53;1030648;28;20442;-71
2022/05/14 00:20:59;;;;;;;;;;;;;;;10.55;100.00;96357.41;1031031;28;19914;-70
2022/05/14 00:21:29;;;;;;;;;;;;;;;10.56;100.00;96362.44;1026975;28;20013;-70
2022/05/14 00:21:59;;;;;;;;;;;;;;;10.59;100.00;96358.50;1026898;28;19906;-71
2022/05/14 00:22:30;;;;;;;;;;;;;;;10.59;100.00;96355.88;1033561;28;19910;-70
2022/05/14 00:23:00;;;;;;;;;;;;;;;10.60;100.00;96357.47;1034982;28;19905;-71
2022/05/14 00:23:30;;;;;;;;;;;;;;;10.59;100.00;96359.28;1034112;28;19914;-70
2022/05/14 00:24:01;;;;;;;;;;;;;;;10.59;100.00;96355.88;1035043;28;20639;-70
2022/05/14 00:24:31;;;;;;;;;;;;;;;10.58;100.00;96357.69;1034852;28;19909;-71
2022/05/14 00:25:02;;;;;;;;;;;;;;;10.58;100.00;96360.31;1039142;28;20418;-70
2022/05/14 00:25:32;;;;;;;;;;;;;;;10.57;100.00;96364.00;1037728;28;19964;-70
2022/05/14 00:26:03;;;;;;;;;;;;;;;10.57;100.00;96361.38;1039114;28;20647;-71
2022/05/14 00:26:35;;;;;;;;;;;;;;;10.59;100.00;96363.75;1036308;28;19916;-70
2022/05/14 00:27:05;;;;;;;;;;;;;;;10.58;100.00;96360.31;1033448;28;20510;-69
2022/05/14 00:27:42;;;;;;;;;;;;;;;10.60;100.00;96367.97;1034988;28;19914;-70
2022/05/14 00:28:13;;;;;;;;;;;;;;;10.61;100.00;96357.22;1030996;28;19909;-70
2022/05/14 00:28:43;;;;;;;;;;;;;;;10.61;100.00;96357.22;1031879;28;19910;-71
2022/05/14 00:29:14;;;;;;;;;;;;;;;10.60;100.00;96366.13;1035972;28;19914;-72
2022/05/14 00:29:44;;;;;;;;;;;;;;;10.59;100.00;96351.41;1038418;28;19935;-70
2022/05/14 00:30:15;;;;;;;;;;;;;;;10.40;100.00;96331.81;1038010;28;20002;-71
2022/05/14 00:30:46;;;;;;;;;;;;;;;10.58;100.00;96359.53;1030783;28;19945;-70
2022/05/14 00:31:16;;;;;;;;;;;;;;;10.57;100.00;96360.59;1030983;28;19914;-69
2022/05/14 00:31:47;;;;;;;;;;;;;;;10.56;100.00;96361.59;1031092;28;20284;-70
2022/05/14 00:32:17;;;;;;;;;;;;;;;10.56;100.00;96361.59;1033997;28;20004;-70
2022/05/14 00:32:47;;;;;;;;;;;;;;;10.54;100.00;96354.00;1034894;28;19917;-70
2022/05/14 00:33:17;;;;;;;;;;;;;;;10.53;100.00;96357.66;1030952;28;19932;-72
2022/05/14 00:33:48;;;;;;;;;;;;;;;10.53;100.00;96357.66;1030752;28;20351;-70
2022/05/14 00:34:19;;;;;;;;;;;;;;;10.52;100.00;96352.66;1034615;28;20003;-72
2022/05/14 00:34:49;;;;;;;;;;;;;;;10.51;100.00;96351.88;1038966;28;20685;-70
2022/05/14 00:35:19;;;;;;;;;;;;;;;10.50;100.00;96357.38;1034878;28;19945;-70
2022/05/14 00:35:50;;;;;;;;;;;;;;;10.48;100.00;96352.34;1030875;28;19981;-71
2022/05/14 00:36:20;;;;;;;;;;;;;;;10.47;100.00;96357.84;1026858;28;20017;-71
2022/05/14 00:36:50;;;;;;;;;;;;;;;10.46;100.00;96348.38;1026832;28;20415;-71
2022/05/14 00:37:23;;;;;;;;;;;;;;;10.44;100.00;96348.63;1031235;28;20474;-71
2022/05/14 00:37:54;;;;;;;;;;;;;;;10.41;100.00;96354.38;1035406;28;19956;-71
2022/05/14 00:38:24;;;;;;;;;;;;;;;10.40;100.00;96352.00;1034952;28;19936;-70
2022/05/14 00:38:54;;;;;;;;;;;;;;;10.37;100.00;96348.03;1034632;28;20432;-71
2022/05/14 00:39:24;;;;;;;;;;;;;;;10.36;100.00;96346.44;1035037;28;19920;-70
2022/05/14 00:39:56;;;;;;;;;;;;;;;10.33;100.00;96347.75;1038423;28;19909;-70
2022/05/14 00:40:27;;;;;;;;;;;;;;;10.33;100.00;96349.56;1034908;28;19921;-70
2022/05/14 00:41:02;;;;;;;;;;;;;;;10.31;100.00;96352.44;1031381;28;20042;-70
2022/05/14 00:41:32;;;;;;;;;;;;;;;10.29;100.00;96351.88;1033347;28;20473;-70
2022/05/14 00:42:02;;;;;;;;;;;;;;;10.31;100.00;96349.03;1030726;28;19918;-70
2022/05/14 00:42:33;;;;;;;;;;;;;;;10.32;100.00;96347.97;1027315;28;19914;-71
2022/05/14 00:43:04;;;;;;;;;;;;;;;10.33;100.00;96349.56;1030819;28;19949;-70
2022/05/14 00:43:35;;;;;;;;;;;;;;;10.34;100.00;96351.16;1026992;28;19910;-71
2022/05/14 00:44:05;;;;;;;;;;;;;;;10.33;100.00;96346.97;1030959;28;19910;-72
2022/05/14 00:44:36;;;;;;;;;;;;;;;10.31;100.00;96343.78;1030802;28;19917;-71
2022/05/14 00:45:06;;;;;;;;;;;;;;;10.33;100.00;96336.47;1030924;28;20339;-70
2022/05/14 00:45:38;;;;;;;;;;;;;;;10.33;100.00;96349.56;1034985;28;20000;-70
2022/05/14 00:46:13;;;;;;;;;;;;;;;10.30;100.00;96342.97;1031273;28;20016;-71
2022/05/14 00:46:45;;;;;;;;;;;;;;;10.28;100.00;96344.25;1035111;28;19964;-71
2022/05/14 00:47:16;;;;;;;;;;;;;;;10.27;100.00;96337.44;1034595;28;19921;-70
2022/05/14 00:47:48;;;;;;;;;;;;;;;10.27;100.00;96338.22;1034969;28;19905;-70
2022/05/14 00:48:18;;;;;;;;;;;;;;;10.28;100.00;96344.25;1035516;28;20359;-71
2022/05/14 00:48:50;;;;;;;;;;;;;;;10.29;100.00;96335.34;1030936;28;19905;-70
2022/05/14 00:49:22;;;;;;;;;;;;;;;10.31;100.00;96333.28;1031126;28;19910;-71
2022/05/14 00:49:52;;;;;;;;;;;;;;;10.32;100.00;96338.28;1029604;28;19917;-70
2022/05/14 00:50:23;;;;;;;;;;;;;;;10.31;100.00;96333.28;1030648;28;19944;-72
2022/05/14 00:50:54;;;;;;;;;;;;;;;10.30;100.00;96331.69;1028788;28;19917;-70
2022/05/14 00:51:28;;;;;;;;;;;;;;;10.30;100.00;96331.69;1028133;28;19985;-72
2022/05/14 00:51:58;;;;;;;;;;;;;;;10.28;100.00;96328.53;1034922;28;19917;-70
2022/05/14 00:52:28;;;;;;;;;;;;;;;10.30;100.00;96336.94;1032770;28;20559;-71
2022/05/14 00:53:01;;;;;;;;;;;;;;;10.29;100.00;96335.34;1027133;28;19916;-70
2022/05/14 00:53:32;;;;;;;;;;;;;;;10.13;100.00;96303.69;1026978;28;19981;-71
2022/05/14 00:54:04;;;;;;;;;;;;;;;10.29;100.00;96333.50;1031507;28;19902;-71
2022/05/14 00:54:37;;;;;;;;;;;;;;;10.30;100.00;96336.94;1034163;28;20323;-70
2022/05/14 00:55:07;;;;;;;;;;;;;;;10.28;100.00;96334.56;1031546;28;19913;-71
2022/05/14 00:55:38;;;;;;;;;;;;;;;10.28;100.00;96331.16;1026640;28;19922;-71
2022/05/14 00:56:09;;;;;;;;;;;;;;;10.26;100.00;96331.41;1026696;28;19911;-70
2022/05/14 00:56:40;;;;;;;;;;;;;;;10.26;100.00;96330.59;1023086;28;19910;-70
2022/05/14 00:57:11;;;;;;;;;;;;;;;10.24;100.00;96337.91;1027038;28;19911;-71
2022/05/14 00:57:41;;;;;;;;;;;;;;;10.21;100.00;96341.78;1029274;28;19910;-70
2022/05/14 00:58:17;;;;;;;;;;;;;;;10.18;100.00;96344.13;1030905;28;20716;-71
2022/05/14 00:58:52;;;;;;;;;;;;;;;10.14;100.00;96341.19;1030860;28;19910;-70
2022/05/14 00:59:22;;;;;;;;;;;;;;;10.11;100.00;96344.31;1030993;28;19989;-71
2022/05/14 00:59:53;;;;;;;;;;;;;;;10.09;100.00;96343.75;1033563;28;19977;-70
2022/05/14 01:00:27;;;;;;;;;;;;;;;10.06;100.00;96345.03;1035551;28;19975;-70
2022/05/14 01:00:57;;;;;;;;;;;;;;;10.02;100.00;96338.69;1034862;28;19909;-71
2022/05/14 01:01:27;;;;;;;;;;;;;;;10.00;100.00;96337.34;1034284;28;19917;-70
2022/05/14 01:01:58;;;;;;;;;;;;;;;9.98;100.00;96342.81;1031095;28;19924;-71
2022/05/14 01:02:28;;;;;;;;;;;;;;;9.96;100.00;96344.91;1030862;28;19914;-71
2022/05/14 01:02:59;;;;;;;;;;;;;;;9.94;100.00;96343.56;1034695;28;19922;-70
2022/05/14 01:03:29;;;;;;;;;;;;;;;9.93;100.00;96337.53;1031015;28;19981;-70
2022/05/14 01:03:59;;;;;;;;;;;;;;;9.93;100.00;96347.22;1030672;28;20004;-70
2022/05/14 01:04:30;;;;;;;;;;;;;;;9.88;100.00;96340.88;1030834;28;19917;-70
2022/05/14 01:05:00;;;;;;;;;;;;;;;9.87;100.00;96343.75;1033117;28;19918;-70
2022/05/14 01:05:31;;;;;;;;;;;;;;;9.86;100.00;96340.34;1034755;28;20363;-70
2022/05/14 01:06:05;;;;;;;;;;;;;;;9.87;100.00;96338.50;1034728;28;19936;-70
2022/05/14 01:06:35;;;;;;;;;;;;;;;9.89;100.00;96339.84;1036457;28;19921;-71
2022/05/14 01:07:13;;;;;;;;;;;;;;;9.90;100.00;96340.63;1038833;28;20479;-70
2022/05/14 01:07:43;;;;;;;;;;;;;;;9.90;100.00;96344.06;1034892;28;19963;-70
2022/05/14 01:08:14;;;;;;;;;;;;;;;9.91;100.00;96339.59;1031765;28;19917;-70
2022/05/14 01:08:44;;;;;;;;;;;;;;;9.86;100.00;96336.94;1034950;28;20085;-70
2022/05/14 01:09:14;;;;;;;;;;;;;;;9.84;100.00;96334.53;1034728;28;20552;-70
2022/05/14 01:09:51;;;;;;;;;;;;;;;9.84;100.00;96334.53;1038412;28;19909;-71
2022/05/14 01:10:22;;;;;;;;;;;;;;;9.84;100.00;96342.41;1038853;28;19957;-70
2022/05/14 01:10:52;;;;;;;;;;;;;;;9.79;100.00;96336.28;1034937;28;20440;-71
2022/05/14 01:11:22;;;;;;;;;;;;;;;9.78;100.00;96332.09;1034920;28;19918;-70
2022/05/14 01:11:54;;;;;;;;;;;;;;;9.76;100.00;96339.38;1034646;28;19925;-70
2022/05/14 01:12:24;;;;;;;;;;;;;;;9.74;100.00;96344.09;1034854;28;19920;-70
2022/05/14 01:12:56;;;;;;;;;;;;;;;9.72;100.00;96340.91;1034706;28;19981;-69
2022/05/14 01:13:26;;;;;;;;;;;;;;;9.72;100.00;96340.91;1032903;28;19917;-70
2022/05/14 01:13:57;;;;;;;;;;;;;;;9.71;100.00;96341.94;1034912;28;19909;-70
2022/05/14 01:14:27;;;;;;;;;;;;;;;9.67;100.00;96339.81;1026872;28;19930;-70
2022/05/14 01:15:07;;;;;;;;;;;;;;;9.64;100.00;96340.28;1030060;28;20001;-70
2022/05/14 01:15:39;;;;;;;;;;;;;;;9.64;100.00;96339.50;1028238;28;19921;-70
2022/05/14 01:16:09;;;;;;;;;;;;;;;9.62;100.00;96333.69;1034724;28;19937;-71
2022/05/14 01:16:40;;;;;;;;;;;;;;;9.61;100.00;96335.53;1027223;28;20591;-70
2022/05/14 01:17:11;;;;;;;;;;;;;;;9.60;100.00;96339.19;1026640;28;19921;-69
2022/05/14 01:17:41;;;;;;;;;;;;;;;9.60;100.00;96339.19;1026996;28;20407;-71
2022/05/14 01:18:11;;;;;;;;;;;;;;;9.60;100.00;96339.19;1026833;28;19918;-70
2022/05/14 01:18:42;;;;;;;;;;;;;;;9.59;100.00;96334.19;1031384;28;19929;-70
2022/05/14 01:19:12;;;;;;;;;;;;;;;9.60;100.00;96344.44;1034808;28;20387;-70
2022/05/14 01:19:42;;;;;;;;;;;;;;;9.58;100.00;96330.78;1034193;28;19925;-69
2022/05/14 01:20:14;;;;;;;;;;;;;;;9.59;100.00;96331.56;1040488;28;19926;-70
2022/05/14 01:20:56;;;;;;;;;;;;;;;9.59;100.00;96331.56;1038905;28;19913;-70
2022/05/14 01:21:32;;;;;;;;;;;;;;;9.58;100.00;96337.84;1030596;28;20331;-70
2022/05/14 01:22:02;;;;;;;;;;;;;;;9.59;100.00;96337.63;1027960;28;19918;-70
2022/05/14 01:22:34;;;;;;;;;;;;;;;9.57;100.00;96339.69;1024987;28;20009;-70
2022/05/14 01:23:08;;;;;;;;;;;;;;;9.36;100.00;96298.53;1024641;28;19915;-70
2022/05/14 01:26:27;;;;;;;;;;;;;;;9.55;100.00;96341.72;1028788;28;19958;-70
2022/05/14 01:26:28;;;;;;;;;;;;;;;9.51;100.00;96334.59;1034893;28;19909;-71
2022/05/14 01:26:59;;;;;;;;;;;;;;;9.51;100.00;96339.84;1036155;28;19906;-70
2022/05/14 01:27:29;;;;;;;;;;;;;;;9.49;100.00;96332.25;1034922;28;19913;-71
2022/05/14 01:27:59;;;;;;;;;;;;;;;9.49;100.00;96337.47;1026976;28;19910;-71
2022/05/14 01:28:29;;;;;;;;;;;;;;;9.51;100.00;96334.59;1025730;28;19922;-70
2022/05/14 01:29:05;;;;;;;;;;;;;;;9.50;100.00;96336.44;1029761;28;19988;-70
2022/05/14 01:29:36;;;;;;;;;;;;;;;9.52;100.00;96338.81;1034287;28;20004;-70
2022/05/14 01:30:06;;;;;;;;;;;;;;;9.51;100.00;96324.91;1035227;28;20302;-70
2022/05/14 01:30:42;;;;;;;;;;;;;;;9.50;100.00;96333.81;1034615;28;19914;-71
2022/05/14 01:31:13;;;;;;;;;;;;;;;9.51;100.00;96330.16;1031592;28;19914;-71
2022/05/14 01:31:43;;;;;;;;;;;;;;;9.51;100.00;96330.16;1034006;28;19937;-71
2022/05/14 01:32:16;;;;;;;;;;;;;;;9.51;100.00;96338.00;1034151;28;20283;-71
2022/05/14 01:32:46;;;;;;;;;;;;;;;9.52;100.00;96326.50;1031086;28;19960;-70
2022/05/14 01:33:17;;;;;;;;;;;;;;;9.52;100.00;96326.50;1034618;28;19988;-70
2022/05/14 01:33:47;;;;;;;;;;;;;;;9.53;100.00;96322.84;1034759;28;20675;-70
2022/05/14 01:34:19;;;;;;;;;;;;;;;9.51;100.00;96330.16;1030792;28;19917;-70
2022/05/14 01:34:50;;;;;;;;;;;;;;;9.50;100.00;96330.41;1034722;28;20585;-71
2022/05/14 01:35:20;;;;;;;;;;;;;;;9.49;100.00;96334.03;1035581;28;19926;-70
2022/05/14 01:35:51;;;;;;;;;;;;;;;9.48;100.00;96335.88;1034950;28;20024;-71
2022/05/14 01:36:21;;;;;;;;;;;;;;;9.48;100.00;96329.84;1035173;28;19924;-71
2022/05/14 01:36:51;;;;;;;;;;;;;;;9.46;100.00;96332.72;1030862;28;19921;-71
2022/05/14 01:37:24;;;;;;;;;;;;;;;9.44;100.00;96335.56;1027588;28;19985;-71
2022/05/14 01:37:54;;;;;;;;;;;;;;;9.45;100.00;96336.34;1031152;28;19918;-71
2022/05/14 01:38:25;;;;;;;;;;;;;;;9.41;100.00;96335.25;1030640;28;19922;-70
2022/05/14 01:38:55;;;;;;;;;;;;;;;9.41;100.00;96337.88;1031000;28;19961;-70
2022/05/14 01:39:25;;;;;;;;;;;;;;;9.39;100.00;96335.50;1034581;28;19941;-70
2022/05/14 01:39:55;;;;;;;;;;;;;;;9.38;100.00;96335.72;1030059;28;19914;-70
2022/05/14 01:40:26;;;;;;;;;;;;;;;9.39;100.00;96332.88;1030330;28;19922;-70
2022/05/14 01:40:56;;;;;;;;;;;;;;;9.39;100.00;96335.50;1026862;28;20335;-71
2022/05/14 01:41:26;;;;;;;;;;;;;;;9.38;100.00;96335.72;1024839;28;20673;-70
2022/05/14 01:41:57;;;;;;;;;;;;;;;9.37;100.00;96339.38;1026703;28;19910;-70
2022/05/14 01:42:27;;;;;;;;;;;;;;;9.34;100.00;96335.41;1033322;28;19925;-70
2022/05/14 01:42:57;;;;;;;;;;;;;;;9.33;100.00;96333.03;1038736;28;20642;-70
2022/05/14 01:43:28;;;;;;;;;;;;;;;9.34;100.00;96339.84;1034581;28;19921;-70
2022/05/14 01:44:01;;;;;;;;;;;;;;;9.33;100.00;96339.06;1030610;28;19921;-71
2022/05/14 01:44:31;;;;;;;;;;;;;;;9.33;100.00;96333.03;1030507;28;19921;-71
2022/05/14 01:45:01;;;;;;;;;;;;;;;9.33;100.00;96333.03;1031209;28;20331;-71
2022/05/14 01:45:32;;;;;;;;;;;;;;;9.32;100.00;96331.44;1030465;28;19918;-70
2022/05/14 01:46:02;;;;;;;;;;;;;;;9.33;100.00;96333.03;1026729;28;19910;-70
2022/05/14 01:46:33;;;;;;;;;;;;;;;9.33;100.00;96333.84;1022541;29;20360;-70
2022/05/14 01:47:03;;;;;;;;;;;;;;;9.33;100.00;96333.84;1018872;29;20674;-70
2022/05/14 01:47:34;;;;;;;;;;;;;;;9.33;100.00;96327.81;1018410;28;19998;-71
2022/05/14 01:48:04;;;;;;;;;;;;;;;9.35;100.00;96337.00;1026865;28;19910;-70
2022/05/14 01:48:35;;;;;;;;;;;;;;;9.36;100.00;96328.13;1030742;28;20415;-70
2022/05/14 01:49:05;;;;;;;;;;;;;;;9.41;100.00;96330.00;1034642;28;20509;-70
2022/05/14 01:49:35;;;;;;;;;;;;;;;9.39;100.00;96332.09;1034004;28;19921;-71
2022/05/14 01:50:06;;;;;;;;;;;;;;;9.43;100.00;96333.19;1034460;28;20402;-70
2022/05/14 01:50:38;;;;;;;;;;;;;;;9.43;100.00;96333.19;1030636;28;19925;-70
2022/05/14 01:51:08;;;;;;;;;;;;;;;9.47;100.00;96336.13;1034634;28;19925;-70
2022/05/14 01:51:38;;;;;;;;;;;;;;;9.48;100.00;96335.88;1030397;28;19914;-71
2022/05/14 01:52:08;;;;;;;;;;;;;;;9.49;100.00;96327.00;1034728;28;19912;-71
2022/05/14 01:52:39;;;;;;;;;;;;;;;9.52;100.00;96333.56;1034789;28;19967;-70
2022/05/14 01:53:09;;;;;;;;;;;;;;;9.52;100.00;96331.72;1026709;28;19910;-71
2022/05/14 01:53:40;;;;;;;;;;;;;;;9.54;100.00;96334.91;1031128;28;19937;-70
2022/05/14 01:54:10;;;;;;;;;;;;;;;9.55;100.00;96331.25;1028590;28;19906;-70
2022/05/14 01:54:40;;;;;;;;;;;;;;;9.54;100.00;96329.66;1030388;28;20383;-71
2022/05/14 01:55:11;;;;;;;;;;;;;;;9.54;100.00;96331.50;1030161;28;19913;-70
2022/05/14 01:55:41;;;;;;;;;;;;;;;9.53;100.00;96328.09;1031710;28;19910;-71
2022/05/14 01:56:11;;;;;;;;;;;;;;;9.53;100.00;96335.94;1035256;28;19932;-70
2022/05/14 01:56:42;;;;;;;;;;;;;;;9.52;100.00;96336.97;1035342;28;20466;-71
2022/05/14 01:57:12;;;;;;;;;;;;;;;9.54;100.00;96334.91;1035306;28;19960;-70
2022/05/14 01:57:43;;;;;;;;;;;;;;;9.54;100.00;96327.06;1030864;28;19920;-70
2022/05/14 01:59:02;;;;;;;;;;;;;;;9.57;100.00;96328.41;1029662;28;19971;-70
2022/05/14 01:59:32;;;;;;;;;;;;;;;9.58;100.00;96330.78;1033505;28;19925;-70
2022/05/14 02:00:06;;;;;;;;;;;;;;;9.60;100.00;96328.72;1035187;28;19910;-71
2022/05/14 02:00:39;;;;;;;;;;;;;;;9.61;100.00;96332.91;1031148;28;19944;-70
2022/05/14 02:01:12;;;;;;;;;;;;;;;9.65;100.00;96330.59;1031889;28;19913;-71
2022/05/14 02:01:42;;;;;;;;;;;;;;;9.67;100.00;96326.72;1029435;28;19921;-70
2022/05/14 02:02:13;;;;;;;;;;;;;;;9.67;100.00;96331.94;1029078;28;19926;-72
2022/05/14 02:02:43;;;;;;;;;;;;;;;9.70;100.00;96335.91;1028925;28;19919;-70
2022/05/14 02:03:16;;;;;;;;;;;;;;;9.72;100.00;96327.81;1028352;28;19917;-71
2022/05/14 02:03:48;;;;;;;;;;;;;;;9.75;100.00;96335.19;1033269;28;19949;-69
2022/05/14 02:04:18;;;;;;;;;;;;;;;9.77;100.00;96328.69;1032528;28;19953;-70
2022/05/14 02:04:48;;;;;;;;;;;;;;;9.80;100.00;96328.19;1034186;28;19914;-70
2022/05/14 02:05:19;;;;;;;;;;;;;;;9.83;100.00;96334.78;1041204;28;19940;-70
2022/05/14 02:05:49;;;;;;;;;;;;;;;9.84;100.00;96331.13;1040898;28;20298;-71
2022/05/14 02:06:19;;;;;;;;;;;;;;;9.87;100.00;96333.25;1036613;28;19960;-71
2022/05/14 02:06:50;;;;;;;;;;;;;;;9.87;100.00;96328.81;1036370;28;20004;-70
2022/05/14 02:07:20;;;;;;;;;;;;;;;9.89;100.00;96332.00;1032721;28;19913;-70
2022/05/14 02:07:51;;;;;;;;;;;;;;;9.91;100.00;96331.72;1028934;28;19926;-71
2022/05/14 02:08:21;;;;;;;;;;;;;;;9.92;100.00;96330.69;1028446;28;20342;-70
2022/05/14 02:08:51;;;;;;;;;;;;;;;9.93;100.00;96334.13;1036764;28;19913;-70
2022/05/14 02:09:22;;;;;;;;;;;;;;;9.94;100.00;96333.06;1037148;28;19921;-70
2022/05/14 02:09:52;;;;;;;;;;;;;;;9.95;100.00;96330.19;1036100;28;19913;-70
2022/05/14 02:10:22;;;;;;;;;;;;;;;9.94;100.00;96328.63;1036752;28;20008;-71
2022/05/14 02:10:53;;;;;;;;;;;;;;;9.96;100.00;96331.00;1032918;28;19925;-71
2022/05/14 02:11:23;;;;;;;;;;;;;;;9.94;100.00;96323.38;1028753;28;19915;-70
2022/05/14 02:11:55;;;;;;;;;;;;;;;9.94;100.00;96328.63;1031893;28;19914;-71
2022/05/14 02:12:25;;;;;;;;;;;;;;;9.95;100.00;96335.44;1028512;28;19918;-70
2022/05/14 02:12:57;;;;;;;;;;;;;;;9.94;100.00;96331.25;1029099;28;19910;-71
2022/05/14 02:13:28;;;;;;;;;;;;;;;9.94;100.00;96331.25;1033245;28;19914;-71
2022/05/14 02:13:59;;;;;;;;;;;;;;;9.91;100.00;96331.72;1033214;28;20394;-70
2022/05/14 02:14:30;;;;;;;;;;;;;;;9.88;100.00;96325.13;1036781;28;19924;-70
2022/05/14 02:15:00;;;;;;;;;;;;;;;9.88;100.00;96327.75;1036460;28;19968;-71
2022/05/14 02:15:30;;;;;;;;;;;;;;;9.87;100.00;96330.63;1033018;28;20391;-70
2022/05/14 02:16:01;;;;;;;;;;;;;;;9.86;100.00;96331.69;1041150;28;19931;-71
2022/05/14 02:16:31;;;;;;;;;;;;;;;9.84;100.00;96326.66;1040883;28;20379;-70
2022/05/14 02:17:02;;;;;;;;;;;;;;;9.81;100.00;96324.53;1036755;28;19913;-70
2022/05/14 02:17:33;;;;;;;;;;;;;;;9.79;100.00;96325.78;1028717;28;19914;-71
2022/05/14 02:18:03;;;;;;;;;;;;;;;9.77;100.00;96328.69;1020772;29;19945;-70
2022/05/14 02:18:33;;;;;;;;;;;;;;;9.74;100.00;96323.13;1026950;28;19914;-71
2022/05/14 02:19:04;;;;;;;;;;;;;;;9.71;100.00;96329.63;1029026;28;19921;-70
2022/05/14 02:19:34;;;;;;;;;;;;;;;9.69;100.00;96329.06;1036255;28;19917;-68
2022/05/14 02:20:14;;;;;;;;;;;;;;;9.67;100.00;96329.31;1036408;28;20442;-72
2022/05/14 02:20:44;;;;;;;;;;;;;;;9.66;100.00;96332.22;1035527;28;19959;-71
2022/05/14 02:21:15;;;;;;;;;;;;;;;9.62;100.00;96318.78;1030040;28;19914;-70
2022/05/14 02:21:48;;;;;;;;;;;;;;;9.62;100.00;96326.66;1034629;28;19924;-71
2022/05/14 02:22:18;;;;;;;;;;;;;;;9.62;100.00;96325.84;1028793;28;19976;-71
2022/05/14 02:22:48;;;;;;;;;;;;;;;9.61;100.00;96325.06;1029182;28;19922;-71
2022/05/14 02:23:19;;;;;;;;;;;;;;;9.60;100.00;96322.69;1028765;28;19956;-71
2022/05/14 02:23:49;;;;;;;;;;;;;;;9.58;100.00;96320.28;1036168;28;19918;-70
2022/05/14 02:24:20;;;;;;;;;;;;;;;9.56;100.00;96319.75;1041022;28;19924;-69
2022/05/14 02:24:50;;;;;;;;;;;;;;;9.55;100.00;96320.78;1040940;28;20369;-70
2022/05/14 02:25:20;;;;;;;;;;;;;;;9.55;100.00;96322.59;1040700;28;19918;-71
2022/05/14 02:25:51;;;;;;;;;;;;;;;9.55;100.00;96331.25;1032889;28;20012;-71
2022/05/14 02:26:21;;;;;;;;;;;;;;;9.53;100.00;96317.63;1036984;28;20306;-70
2022/05/14 02:26:51;;;;;;;;;;;;;;;9.52;100.00;96321.25;1040781;28;19916;-71
2022/05/14 02:27:21;;;;;;;;;;;;;;;9.53;100.00;96319.44;1040988;28;19997;-72
2022/05/14 02:27:52;;;;;;;;;;;;;;;9.53;100.00;96322.84;1045011;28;20412;-71
2022/05/14 02:28:22;;;;;;;;;;;;;;;9.52;100.00;96318.63;1041159;28;19917;-71
2022/05/14 02:28:52;;;;;;;;;;;;;;;9.54;100.00;96319.19;1031707;28;19918;-70
2022/05/14 02:29:24;;;;;;;;;;;;;;;9.53;100.00;96316.81;1028679;28;19918;-70
2022/05/14 02:29:54;;;;;;;;;;;;;;;9.53;100.00;96325.47;1024202;28;19906;-70
2022/05/14 02:30:25;;;;;;;;;;;;;;;9.52;100.00;96317.84;1028807;28;19918;-71
2022/05/14 02:30:55;;;;;;;;;;;;;;;9.51;100.00;96319.69;1032752;28;19924;-70
2022/05/14 02:31:26;;;;;;;;;;;;;;;9.51;100.00;96314.44;1032916;28;19918;-70
2022/05/14 02:31:57;;;;;;;;;;;;;;;9.52;100.00;96317.84;1041263;28;20368;-70
2022/05/14 02:32:27;;;;;;;;;;;;;;;9.49;100.00;96316.53;1045213;28;19921;-70
2022/05/14 02:32:57;;;;;;;;;;;;;;;9.50;100.00;96317.31;1036806;28;20414;-70
2022/05/14 02:33:28;;;;;;;;;;;;;;;9.48;100.00;96317.53;1028259;28;20534;-71
2022/05/14 02:33:58;;;;;;;;;;;;;;;9.47;100.00;96315.97;1024838;28;19922;-70
2022/05/14 02:34:28;;;;;;;;;;;;;;;9.48;100.00;96325.38;1028618;28;19926;-70
2022/05/14 02:34:59;;;;;;;;;;;;;;;9.48;100.00;96320.16;1024845;28;19922;-71
2022/05/14 02:35:29;;;;;;;;;;;;;;;9.47;100.00;96313.34;1030169;28;20340;-70
2022/05/14 02:36:00;;;;;;;;;;;;;;;9.47;100.00;96315.97;1028710;28;19926;-71
2022/05/14 02:36:30;;;;;;;;;;;;;;;9.46;100.00;96311.75;1028730;28;19941;-71
2022/05/14 02:37:00;;;;;;;;;;;;;;;9.48;100.00;96316.75;1028695;28;19921;-70
2022/05/14 02:37:31;;;;;;;;;;;;;;;9.50;100.00;96320.72;1024472;28;19923;-70
2022/05/14 02:38:01;;;;;;;;;;;;;;;9.50;100.00;96318.09;1028877;28;19953;-70
2022/05/14 02:38:32;;;;;;;;;;;;;;;9.48;100.00;96314.91;1032734;28;19917;-71
2022/05/14 02:39:03;;;;;;;;;;;;;;;9.47;100.00;96323.81;1036787;28;20370;-70
2022/05/14 02:39:36;;;;;;;;;;;;;;;9.46;100.00;96322.25;1036512;28;19921;-72
2022/05/14 02:40:06;;;;;;;;;;;;;;;9.46;100.00;96322.25;1036421;28;19914;-70
2022/05/14 02:40:37;;;;;;;;;;;;;;;9.46;100.00;96322.25;1037290;28;19930;-71
2022/05/14 02:41:07;;;;;;;;;;;;;;;9.42;100.00;96319.31;1035177;28;19925;-70
2022/05/14 02:41:38;;;;;;;;;;;;;;;9.42;100.00;96318.50;1036556;28;19956;-70
2022/05/14 02:42:08;;;;;;;;;;;;;;;9.40;100.00;96316.13;1037042;28;19913;-71
2022/05/14 02:42:38;;;;;;;;;;;;;;;9.39;100.00;96319.78;1036945;28;20083;-70
2022/05/14 02:43:09;;;;;;;;;;;;;;;9.39;100.00;96316.38;1036767;28;20345;-70
2022/05/14 02:43:39;;;;;;;;;;;;;;;9.38;100.00;96315.56;1032876;28;20029;-71
2022/05/14 02:44:10;;;;;;;;;;;;;;;9.35;100.00;96316.03;1028392;28;20014;-71
2022/05/14 02:44:40;;;;;;;;;;;;;;;9.36;100.00;96316.84;1030267;28;19922;-71
2022/05/14 02:45:11;;;;;;;;;;;;;;;9.35;100.00;96317.88;1036843;28;19922;-70
2022/05/14 02:45:41;;;;;;;;;;;;;;;9.34;100.00;96314.47;1040728;28;19920;-70